Latest Weather Observations for Temora

IDN60801

Issued at 12:35 pm EST Sunday 20 April 2014 (issued every 30 minutes, with the page automatically refreshed every 10 minutes)

About weather observations | Map of weather stations | Latest weather observations for NSW | Other Formats
Station Details ID: 073151 Name: TEMORA AIRPORT Lat: -34.43 Lon: 147.51 Height: 280.5 m
Data from the previous 72 hours. | See also: Recent months at Temora
Date/Time
EST
Temp
°C
App
Temp
°C
Dew
Point
Rel
Hum
%
Delta-T
°C
Wind Press
QNH
hPa
Press
MSL
hPa
Rain
since 9 am
mm
Dir
 
Spd
km/h
Gust
km/h
Spd
kts
Gust
kts
20/12:30pm 16.2 12.5 6.3 52 4.9 SW 15 20 8 11 1019.0 - 0.0
20/12:00pm 16.0 13.1 6.4 53 4.7 WSW 11 22 6 12 1019.4 1018.9 0.0
20/11:30am 15.7 12.2 5.6 51 4.9 W 13 24 7 13 1019.7 - 0.0
20/11:00am 15.2 11.8 5.7 53 4.6 SSW 13 20 7 11 1020.1 - 0.0
20/10:30am 15.0 11.6 5.8 54 4.5 SSW 13 19 7 10 1020.1 - 0.0
20/10:00am 14.0 11.8 7.8 66 3.1 SSW 9 17 5 9 1020.2 - 0.0
20/09:30am 13.0 11.8 7.9 71 2.5 SE 4 7 2 4 1020.0 - 0.0
20/09:00am 11.1 10.6 8.0 81 1.5 CALM 0 0 0 0 1020.2 1019.8 0.0
20/08:30am 9.6 9.0 7.5 87 1.0 CALM 0 0 0 0 1020.1 - 0.0
20/08:00am 7.3 6.5 6.7 96 0.3 CALM 0 0 0 0 1019.9 - 0.0
20/07:30am 4.4 2.8 4.3 99 0.0 SSW 2 6 1 3 1019.8 - 0.0
20/07:00am 2.5 -0.3 2.2 98 0.1 SSW 6 7 3 4 1019.6 - 0.0
20/06:30am 1.5 -1.5 1.1 97 0.2 SSW 6 7 3 4 1019.3 - 0.0
20/06:00am 2.4 0.4 2.1 98 0.1 SSW 2 7 1 4 1018.9 1018.4 0.0
20/05:30am 2.1 0.4 1.7 97 0.2 CALM 0 0 0 0 1018.5 - 0.0
20/05:00am 2.8 0.4 2.4 97 0.2 SSW 4 7 2 4 1018.4 - 0.0
20/04:30am 3.1 1.5 2.7 97 0.2 CALM 0 0 0 0 1018.3 - 0.0
20/04:00am 3.3 1.8 2.9 97 0.2 CALM 0 0 0 0 1018.1 - 0.0
20/03:30am 3.3 1.8 2.9 97 0.2 CALM 0 0 0 0 1018.0 - 0.0
20/03:00am 3.2 1.6 2.6 96 0.2 CALM 0 0 0 0 1018.0 1017.6 0.0
20/02:30am 3.3 0.6 2.7 96 0.2 SSW 6 7 3 4 1017.9 - 0.0
20/02:00am 3.3 1.7 2.6 95 0.3 CALM 0 0 0 0 1018.3 - 0.0
20/01:30am 4.2 2.4 3.6 96 0.3 SSW 2 7 1 4 1018.3 - 0.0
20/01:00am 4.1 2.7 3.5 96 0.3 CALM 0 0 0 0 1018.5 - 0.0
20/12:30am 4.9 3.6 4.2 95 0.3 CALM 0 0 0 0 1018.3 - 0.0
20/12:00am 4.2 2.0 3.2 93 0.4 SSW 4 7 2 4 1018.5 1018.1 0.0
 
Date/Time
EST
Temp
°C
App
Temp
°C
Dew
Point
Rel
Hum
%
Delta-T
°C
Wind Press
QNH
hPa
Press
MSL
hPa
Rain
since 9 am
mm
Dir
 
Spd
km/h
Gust
km/h
Spd
kts
Gust
kts
19/11:30pm 4.5 1.7 3.3 92 0.5 SSW 7 7 4 4 1018.5 - 0.0
19/11:00pm 4.7 1.9 3.2 90 0.6 SW 7 9 4 5 1018.8 - 0.0
19/10:30pm 6.0 3.5 4.5 90 0.7 SSW 7 9 4 5 1018.8 - 0.0
19/10:00pm 6.6 4.4 5.2 91 0.6 SSW 6 7 3 4 1018.9 - 0.0
19/09:30pm 5.2 2.7 3.9 91 0.6 SSW 6 7 3 4 1019.0 - 0.0
19/09:00pm 7.1 5.7 5.4 89 0.8 WSW 2 6 1 3 1018.8 1018.3 0.0
19/08:30pm 6.8 4.8 4.5 85 1.0 SW 4 7 2 4 1018.8 - 0.0
19/08:00pm 8.6 7.6 5.7 82 1.3 CALM 0 0 0 0 1018.5 - 0.0
19/07:30pm 9.6 8.6 5.8 77 1.8 CALM 0 0 0 0 1018.4 - 0.0
19/07:00pm 10.4 9.1 6.0 74 2.1 SW 2 6 1 3 1018.2 - 0.0
19/06:30pm 11.8 9.6 5.4 65 3.0 WSW 6 9 3 5 1018.0 - 0.0
19/06:00pm 12.9 10.1 5.1 59 3.7 WSW 9 13 5 7 1017.8 1017.4 0.0
19/05:30pm 14.2 11.1 5.6 56 4.1 WSW 11 15 6 8 1017.6 - 0.0
19/05:00pm 15.6 11.8 5.8 52 4.8 SW 15 20 8 11 1017.3 - 0.0
19/04:30pm 16.6 13.6 6.1 50 5.2 WSW 11 17 6 9 1017.1 - 0.0
19/04:00pm 16.8 12.2 5.4 47 5.6 WSW 19 26 10 14 1017.3 - 0.0
19/03:30pm 17.3 13.6 6.2 48 5.5 WSW 15 22 8 12 1017.3 - 0.0
19/03:00pm 17.1 13.2 5.4 46 5.7 WSW 15 26 8 14 1017.4 1017.0 0.0
19/02:30pm 17.0 12.7 5.3 46 5.7 SW 17 28 9 15 1017.5 - 0.0
19/02:00pm 16.6 11.9 5.3 47 5.5 SW 19 28 10 15 1017.6 - 0.0
19/01:30pm 16.5 12.6 5.2 47 5.5 WSW 15 26 8 14 1017.7 - 0.0
19/01:00pm 16.5 13.2 6.3 51 5.1 WSW 13 26 7 14 1018.0 - 0.0
19/12:30pm 15.8 11.7 6.3 53 4.7 SW 17 26 9 14 1018.5 - 0.0
19/12:00pm 15.7 12.2 7.0 56 4.3 SW 15 20 8 11 1018.9 1018.4 0.0
19/11:30am 15.5 11.6 7.3 58 4.1 WSW 17 26 9 14 1019.2 - 0.0
19/11:00am 14.9 11.2 6.5 57 4.1 SW 15 20 8 11 1019.4 - 0.0
19/10:30am 14.4 11.4 7.7 64 3.4 SSW 13 19 7 10 1019.7 - 0.0
19/10:00am 13.4 11.1 8.9 74 2.3 SSW 11 15 6 8 1019.7 - 0.0
19/09:30am 12.0 9.7 7.3 73 2.3 SSW 9 15 5 8 1019.5 - 0.0
19/09:00am 11.1 8.5 7.6 79 1.7 SSW 11 13 6 7 1019.5 1019.0 0.0
19/08:30am 9.8 6.7 7.1 83 1.3 SSW 13 17 7 9 1019.4 - 0.0
19/08:00am 8.7 5.8 6.7 87 0.9 SW 11 15 6 8 1019.3 - 0.0
19/07:30am 8.1 5.9 6.4 89 0.8 W 7 11 4 6 1019.1 - 0.0
19/07:00am 7.3 6.0 5.8 90 0.7 WSW 2 9 1 5 1018.5 - 0.0
19/06:30am 7.1 4.0 5.4 89 0.8 SSW 11 17 6 9 1018.2 - 0.0
19/06:00am 7.2 4.4 5.2 87 0.9 SSW 9 13 5 7 1017.9 1017.5 0.0
19/05:30am 7.6 4.5 5.4 86 1.0 SW 11 17 6 9 1017.9 - 0.0
19/05:00am 7.1 4.3 5.1 87 0.9 SW 9 13 5 7 1017.8 - 0.0
19/04:30am 6.8 3.5 4.6 86 1.0 W 11 13 6 7 1017.8 - 0.0
19/04:00am 7.3 3.8 5.3 87 0.9 W 13 19 7 10 1017.5 - 0.0
19/03:30am 7.5 3.6 5.5 87 0.9 W 15 17 8 9 1017.7 - 0.0
19/03:00am 7.1 3.9 5.3 88 0.8 W 11 13 6 7 1017.9 1017.5 0.0
19/02:30am 7.9 5.2 5.4 84 1.1 W 9 11 5 6 1017.9 - 0.0
19/02:00am 9.3 6.7 6.2 81 1.5 SW 9 13 5 7 1017.8 - 0.0
19/01:30am 9.6 7.1 6.7 82 1.4 WSW 9 13 5 7 1017.9 - 0.0
19/01:00am 10.6 8.4 7.7 82 1.4 SW 9 11 5 6 1017.9 - 0.0
19/12:30am 11.2 8.7 8.2 82 1.5 WSW 11 15 6 8 1018.0 - 0.0
19/12:00am 11.7 9.6 8.2 79 1.7 WSW 9 17 5 9 1017.9 1017.5 0.0
 
Date/Time
EST
Temp
°C
App
Temp
°C
Dew
Point
Rel
Hum
%
Delta-T
°C
Wind Press
QNH
hPa
Press
MSL
hPa
Rain
since 9 am
mm
Dir
 
Spd
km/h
Gust
km/h
Spd
kts
Gust
kts
18/11:30pm 12.3 9.5 8.6 78 1.9 SW 13 20 7 11 1017.7 - 0.0
18/11:00pm 13.0 10.0 9.3 78 1.9 SSW 15 20 8 11 1017.8 - 0.0
18/10:30pm 13.4 10.8 9.3 76 2.1 SW 13 22 7 12 1017.9 - 0.0
18/10:00pm 14.4 11.3 10.2 76 2.2 SSW 17 26 9 14 1017.6 - 0.0
18/09:30pm 15.1 11.8 10.9 76 2.3 SSW 19 26 10 14 1017.5 - 0.0
18/09:00pm 16.1 13.0 10.4 69 3.1 SW 17 26 9 14 1017.2 1016.8 0.0
18/08:30pm 15.7 13.7 10.0 69 3.0 WSW 11 15 6 8 1017.0 - 0.0
18/08:00pm 15.8 13.4 9.9 68 3.1 WSW 13 17 7 9 1016.8 - 0.0
18/07:30pm 15.7 13.2 9.8 68 3.1 WSW 13 17 7 9 1016.6 - 0.0
18/07:00pm 15.7 13.4 9.1 65 3.4 W 11 17 6 9 1016.4 - 0.0
18/06:30pm 17.0 14.8 9.4 61 4.0 WSW 11 15 6 8 1016.1 - 0.0
18/06:00pm 17.9 15.3 9.3 57 4.6 W 13 17 7 9 1015.9 1015.4 0.0
18/05:30pm 19.2 15.7 8.8 51 5.5 WSW 17 24 9 13 1015.8 - 0.0
18/05:00pm 19.8 16.7 8.8 49 5.8 WSW 15 22 8 12 1015.8 - 0.0
18/04:30pm 20.3 16.2 8.0 45 6.5 W 19 28 10 15 1015.5 - 0.0
18/04:00pm 20.6 16.4 8.3 45 6.5 WSW 20 30 11 16 1015.4 - 0.0
18/03:30pm 20.8 16.4 8.8 46 6.4 WSW 22 30 12 16 1015.5 - 0.0
18/03:00pm 21.3 17.6 9.5 47 6.4 SW 19 26 10 14 1015.6 1015.1 0.0
18/02:30pm 20.9 16.0 8.5 45 6.6 WSW 24 33 13 18 1015.7 - 0.0
18/02:00pm 21.1 15.8 8.4 44 6.7 W 26 35 14 19 1015.8 - 0.0
18/01:30pm 21.4 16.5 8.3 43 7.0 W 24 33 13 18 1016.0 - 0.0
18/01:00pm 22.0 17.7 9.2 44 6.9 W 22 32 12 17 1016.1 - 0.0
18/12:30pm 21.4 16.2 9.0 45 6.7 W 26 37 14 20 1016.7 - 0.0
18/12:00pm 22.3 16.7 8.8 42 7.3 W 28 35 15 19 1017.0 1016.6 0.0
18/11:30am 21.2 17.0 9.8 48 6.2 W 22 37 12 20 1017.6 - 0.0
18/11:00am 20.5 17.4 10.3 52 5.6 WNW 17 26 9 14 1018.0 - 0.0
18/10:30am 19.8 17.8 11.6 59 4.6 NNW 13 19 7 10 1018.3 - 0.0
18/10:00am 18.0 17.5 12.7 71 3.0 N 7 11 4 6 1018.6 - 0.0
18/09:30am 15.7 14.8 11.5 76 2.3 N 7 11 4 6 1019.1 - 0.0
18/09:00am 14.1 13.1 10.9 81 1.7 N 7 9 4 5 1019.4 1018.9 0.0
18/08:30am 11.7 11.9 10.4 92 0.7 CALM 0 7 0 4 1019.4 - 0.0
18/08:00am 9.4 9.2 9.1 98 0.2 CALM 0 0 0 0 1019.5 - 0.0
18/07:30am 7.7 7.1 7.4 98 0.1 CALM 0 2 0 1 1019.1 - 0.0
18/07:00am 6.6 5.7 6.2 97 0.2 CALM 0 0 0 0 1019.0 - 0.0
18/06:30am 6.7 5.9 6.4 98 0.1 CALM 0 0 0 0 1018.8 - 0.0
18/06:00am 6.5 5.6 6.2 98 0.1 CALM 0 0 0 0 1018.6 1018.2 0.0
18/05:30am 6.4 5.4 5.8 96 0.3 CALM 0 0 0 0 1018.5 - 0.0
18/05:00am 7.1 6.3 6.7 97 0.2 CALM 0 0 0 0 1018.5 - 0.0
18/04:30am 6.7 5.9 6.3 97 0.2 CALM 0 0 0 0 1018.6 - 0.0
18/04:00am 6.8 5.9 6.1 95 0.3 CALM 0 0 0 0 1018.6 - 0.0
18/03:30am 7.6 7.0 7.2 97 0.2 CALM 0 0 0 0 1018.6 - 0.0
18/03:00am 7.3 6.5 6.7 96 0.3 CALM 0 0 0 0 1019.0 1018.5 0.0
18/02:30am 7.3 6.5 6.7 96 0.3 CALM 0 0 0 0 1019.2 - 0.0
18/02:00am 7.4 6.6 6.7 95 0.3 CALM 0 0 0 0 1019.3 - 0.0
18/01:30am 7.8 7.1 7.1 95 0.3 CALM 0 0 0 0 1019.5 - 0.0
18/01:00am 8.0 6.1 7.4 96 0.3 S 7 9 4 5 1019.6 - 0.0
18/12:30am 7.9 6.1 7.1 95 0.4 SSW 6 7 3 4 1019.8 - 0.0
18/12:00am 8.1 6.7 7.3 95 0.4 SSW 4 7 2 4 1020.0 1019.5 0.0
 
Date/Time
EST
Temp
°C
App
Temp
°C
Dew
Point
Rel
Hum
%
Delta-T
°C
Wind Press
QNH
hPa
Press
MSL
hPa
Rain
since 9 am
mm
Dir
 
Spd
km/h
Gust
km/h
Spd
kts
Gust
kts
17/11:30pm 8.1 7.5 7.2 94 0.4 CALM 0 0 0 0 1020.1 - 0.0
17/11:00pm 8.8 8.3 8.0 95 0.4 CALM 0 0 0 0 1020.4 - 0.0
17/10:30pm 8.7 6.9 7.8 94 0.4 S 7 7 4 4 1020.6 - 0.0
17/10:00pm 9.0 7.4 7.8 92 0.6 SSW 6 7 3 4 1020.7 - 0.0
17/09:30pm 9.5 7.7 8.1 91 0.7 SSW 7 7 4 4 1020.7 - 0.0
17/09:00pm 10.0 9.7 8.6 91 0.7 CALM 0 0 0 0 1020.7 1020.3 0.0
17/08:30pm 10.1 9.8 8.5 90 0.8 CALM 0 0 0 0 1020.6 - 0.0
17/08:00pm 11.3 9.8 8.5 83 1.4 S 6 7 3 4 1020.5 - 0.0
17/07:30pm 12.1 10.6 9.3 83 1.4 SSW 7 7 4 4 1020.4 - 0.0
17/07:00pm 13.2 12.0 9.6 79 1.9 SSW 6 7 3 4 1020.1 - 0.0
17/06:30pm 14.2 13.0 9.4 73 2.5 SSW 6 7 3 4 1020.0 - 0.0
17/06:00pm 15.7 14.2 9.1 65 3.4 S 7 9 4 5 1019.8 1019.3 0.0
17/05:30pm 18.2 16.3 9.0 55 4.9 SSW 9 11 5 6 1019.7 - 0.0
17/05:00pm 19.4 16.7 9.0 51 5.5 SSW 13 17 7 9 1019.6 - 0.0
17/04:30pm 20.2 17.8 8.8 48 6.1 SSW 11 17 6 9 1019.5 - 0.0
17/04:00pm 20.9 18.6 8.9 46 6.4 SSW 11 17 6 9 1019.5 - 0.0
17/03:30pm 21.1 19.1 8.7 45 6.6 SW 9 19 5 10 1019.5 - 0.0
17/03:00pm 21.2 19.1 8.1 43 6.9 SW 9 15 5 8 1019.6 1019.1 0.0
17/02:30pm 21.4 18.9 10.9 51 5.8 WSW 15 22 8 12 1019.7 - 0.0
17/02:00pm 20.8 18.3 9.7 49 6.0 SW 13 20 7 11 1019.9 - 0.0
17/01:30pm 20.5 19.5 10.9 54 5.3 W 7 17 4 9 1020.2 - 0.0
17/01:00pm 20.7 18.8 9.0 47 6.3 WSW 9 15 5 8 1020.4 - 0.0

Other Formats:

Comma delimited format used in spreadsheet applications
http://www.bom.gov.au/fwo/IDN60801/IDN60801.95722.axf

JavaScript Object Notation format (JSON) in row-major order
http://www.bom.gov.au/fwo/IDN60801/IDN60801.95722.json